Time;durP1;ratioP1;P1;durP2;ratioP2;P2;SDS_P1;SDS_P2;PMS_P1;PMS_P2;Temp;Humidity;BMP_temperature;BMP_pressure;BME280_temperature;BME280_humidity;BME280_pressure;Samples;Min_cycle;Max_cycle;Signal;HPM_P1;HPM_P2
2022/05/15 00:02:11;;;;;;;7.10;1.77;;;;;;;;;;5025460;28;20334;-63
2022/05/15 00:04:38;;;;;;;7.50;1.63;;;;;;;;;;5030633;28;20274;-63
2022/05/15 00:07:05;;;;;;;5.50;1.83;;;;;;;;;;5023076;28;20187;-63
2022/05/15 00:09:32;;;;;;;5.40;1.63;;;;;;;;;;5026136;28;20670;-63
2022/05/15 00:11:59;;;;;;;6.80;1.60;;;;;;;;;;5015660;28;20192;-63
2022/05/15 00:14:25;;;;;;;5.47;1.70;;;;;;;;;;5030246;28;20315;-63
2022/05/15 00:16:52;;;;;;;9.90;1.80;;;;;;;;;;5030711;28;20187;-63
2022/05/15 00:19:19;;;;;;;9.60;1.80;;;;;;;;;;5029689;28;20334;-63
2022/05/15 00:21:46;;;;;;;7.63;1.73;;;;;;;;;;5029897;28;20199;-63
2022/05/15 00:24:14;;;;;;;5.53;1.73;;;;;;;;;;5028185;28;20199;-63
2022/05/15 00:26:40;;;;;;;4.67;1.70;;;;;;;;;;5027760;28;20195;-63
2022/05/15 00:29:07;;;;;;;10.07;1.70;;;;;;;;;;5027501;28;20191;-63
2022/05/15 00:31:34;;;;;;;8.50;1.70;;;;;;;;;;5026181;28;20200;-63
2022/05/15 00:34:01;;;;;;;5.93;1.60;;;;;;;;;;5012489;28;20187;-63
2022/05/15 00:36:27;;;;;;;6.93;1.90;;;;;;;;;;5030274;28;20241;-63
2022/05/15 00:38:54;;;;;;;6.50;1.70;;;;;;;;;;5027322;28;20336;-63
2022/05/15 00:41:21;;;;;;;6.07;1.83;;;;;;;;;;5029871;28;20257;-63
2022/05/15 00:43:52;;;;;;;3.77;1.53;;;;;;;;;;5027520;28;20622;-63
2022/05/15 00:46:29;;;;;;;6.57;1.67;;;;;;;;;;5024428;28;20250;-63
2022/05/15 00:48:57;;;;;;;7.00;1.73;;;;;;;;;;5012693;28;20191;-63
2022/05/15 00:51:24;;;;;;;5.07;1.63;;;;;;;;;;5011877;28;20286;-63
2022/05/15 00:53:52;;;;;;;9.17;2.57;;;;;;;;;;5009830;28;20200;-63
2022/05/15 00:56:19;;;;;;;9.37;2.97;;;;;;;;;;4995918;28;20353;-63
2022/05/15 00:58:48;;;;;;;8.70;2.97;;;;;;;;;;5029174;28;20235;-63
2022/05/15 01:01:15;;;;;;;10.37;2.30;;;;;;;;;;5011951;28;20204;-63
2022/05/15 01:03:42;;;;;;;7.27;1.93;;;;;;;;;;5024106;28;20223;-63
2022/05/15 01:06:09;;;;;;;6.63;2.00;;;;;;;;;;5006422;28;20305;-63
2022/05/15 01:08:36;;;;;;;8.50;1.77;;;;;;;;;;5009920;28;20445;-63
2022/05/15 01:11:21;;;;;;;8.87;1.77;;;;;;;;;;5011708;28;20206;-63
2022/05/15 01:13:48;;;;;;;7.03;1.70;;;;;;;;;;4989572;28;20748;-63
2022/05/15 01:16:32;;;;;;;6.63;1.70;;;;;;;;;;4983615;28;20520;-62
2022/05/15 01:18:59;;;;;;;5.67;1.57;;;;;;;;;;5009359;28;20323;-62
2022/05/15 01:21:56;;;;;;;5.83;1.70;;;;;;;;;;4991543;28;20643;-63
2022/05/15 01:24:25;;;;;;;5.33;1.43;;;;;;;;;;4991941;28;20203;-63
2022/05/15 01:26:52;;;;;;;8.70;1.60;;;;;;;;;;4991789;28;20184;-63
2022/05/15 01:29:19;;;;;;;7.00;1.70;;;;;;;;;;4986807;28;21008;-62
2022/05/15 01:31:49;;;;;;;9.60;1.70;;;;;;;;;;4991026;28;20279;-63
2022/05/15 01:34:17;;;;;;;9.97;1.87;;;;;;;;;;5021355;28;20536;-62
2022/05/15 01:36:44;;;;;;;11.20;1.63;;;;;;;;;;5018125;28;20287;-63
2022/05/15 01:39:11;;;;;;;4.97;1.53;;;;;;;;;;5010858;28;20618;-62
2022/05/15 01:41:39;;;;;;;4.97;1.50;;;;;;;;;;5011234;28;20201;-62
2022/05/15 01:44:07;;;;;;;8.37;1.83;;;;;;;;;;4993564;28;20205;-63
2022/05/15 01:46:34;;;;;;;7.63;1.73;;;;;;;;;;4989525;28;20521;-63
2022/05/15 01:49:07;;;;;;;8.03;2.30;;;;;;;;;;5010735;28;20196;-62
2022/05/15 01:51:39;;;;;;;6.97;1.80;;;;;;;;;;4991589;28;20207;-62
2022/05/15 01:54:07;;;;;;;7.83;1.80;;;;;;;;;;4992611;28;20207;-62
2022/05/15 01:56:34;;;;;;;7.83;1.80;;;;;;;;;;5010904;28;20282;-63
2022/05/15 01:59:01;;;;;;;7.50;1.87;;;;;;;;;;5024361;28;20559;-63
2022/05/15 02:01:28;;;;;;;3.83;1.60;;;;;;;;;;5010700;28;20249;-63
2022/05/15 02:03:54;;;;;;;7.47;1.80;;;;;;;;;;5027410;28;20191;-63
2022/05/15 02:06:21;;;;;;;5.50;1.97;;;;;;;;;;5010451;28;20281;-63
2022/05/15 02:08:48;;;;;;;8.77;1.83;;;;;;;;;;5003257;28;20245;-63
2022/05/15 02:11:15;;;;;;;6.80;1.67;;;;;;;;;;5026208;28;20202;-63
2022/05/15 02:13:42;;;;;;;5.87;2.03;;;;;;;;;;5010511;28;20450;-63
2022/05/15 02:16:08;;;;;;;6.60;1.53;;;;;;;;;;5027956;28;20188;-62
2022/05/15 02:18:36;;;;;;;7.40;1.70;;;;;;;;;;5028775;28;20618;-63
2022/05/15 02:21:03;;;;;;;7.27;1.83;;;;;;;;;;5008378;28;20219;-63
2022/05/15 02:23:31;;;;;;;10.23;2.00;;;;;;;;;;5010374;28;20627;-63
2022/05/15 02:25:59;;;;;;;11.47;1.90;;;;;;;;;;5024108;28;20462;-63
2022/05/15 02:28:27;;;;;;;9.80;2.07;;;;;;;;;;5027611;28;20191;-63
2022/05/15 02:30:53;;;;;;;8.47;2.20;;;;;;;;;;4990863;28;20192;-63
2022/05/15 02:33:20;;;;;;;6.53;2.23;;;;;;;;;;5008259;28;20218;-63
2022/05/15 02:35:47;;;;;;;7.00;1.80;;;;;;;;;;5011759;28;20318;-63
2022/05/15 02:38:14;;;;;;;8.60;1.93;;;;;;;;;;5009740;28;20596;-63
2022/05/15 02:40:42;;;;;;;7.70;2.20;;;;;;;;;;5007952;28;20999;-64
2022/05/15 02:43:08;;;;;;;8.53;2.40;;;;;;;;;;5028751;28;20434;-63
2022/05/15 02:45:36;;;;;;;8.80;2.67;;;;;;;;;;5032343;28;20562;-63
2022/05/15 02:48:03;;;;;;;10.87;4.13;;;;;;;;;;5005815;28;20203;-63
2022/05/15 02:53:15;;;;;;;8.03;1.97;;;;;;;;;;4992853;28;20442;-63
2022/05/15 02:55:42;;;;;;;6.63;1.77;;;;;;;;;;4975017;28;20447;-63
2022/05/15 02:58:09;;;;;;;8.00;2.13;;;;;;;;;;4975180;28;20200;-63
2022/05/15 03:00:37;;;;;;;7.67;1.70;;;;;;;;;;4992847;28;20224;-63
2022/05/15 03:03:04;;;;;;;7.90;2.17;;;;;;;;;;4992281;28;20220;-63
2022/05/15 03:05:30;;;;;;;6.60;1.93;;;;;;;;;;5005990;28;20650;-63
2022/05/15 03:08:15;;;;;;;5.23;1.63;;;;;;;;;;4991049;28;20176;-63
2022/05/15 03:10:42;;;;;;;7.20;2.40;;;;;;;;;;4991949;28;20200;-63
2022/05/15 03:13:09;;;;;;;12.63;3.70;;;;;;;;;;5024355;28;20443;-63
2022/05/15 03:15:36;;;;;;;12.23;3.43;;;;;;;;;;5026136;28;20227;-63
2022/05/15 03:18:03;;;;;;;11.67;2.57;;;;;;;;;;4993934;28;20666;-63
2022/05/15 03:20:30;;;;;;;5.27;1.83;;;;;;;;;;5011589;28;20505;-63
2022/05/15 03:22:57;;;;;;;8.83;2.10;;;;;;;;;;4993948;28;20199;-63
2022/05/15 03:25:26;;;;;;;6.80;2.20;;;;;;;;;;5008172;28;20961;-63
2022/05/15 03:27:55;;;;;;;6.23;2.10;;;;;;;;;;4992277;28;20180;-63
2022/05/15 03:30:40;;;;;;;7.73;1.70;;;;;;;;;;5023781;28;20548;-63
2022/05/15 03:33:08;;;;;;;11.07;2.27;;;;;;;;;;4994128;28;20485;-63
2022/05/15 03:35:35;;;;;;;8.60;1.77;;;;;;;;;;5011444;28;20283;-63
2022/05/15 03:38:02;;;;;;;5.93;2.00;;;;;;;;;;5021147;28;20257;-63
2022/05/15 03:40:29;;;;;;;8.37;2.20;;;;;;;;;;5012178;28;20215;-64
2022/05/15 03:42:57;;;;;;;11.47;2.10;;;;;;;;;;4991019;28;20199;-63
2022/05/15 03:45:24;;;;;;;6.90;1.80;;;;;;;;;;4991916;28;20838;-63
2022/05/15 03:47:51;;;;;;;7.57;1.80;;;;;;;;;;4974251;28;20204;-63
2022/05/15 03:50:19;;;;;;;10.77;2.20;;;;;;;;;;4991733;28;20196;-63
2022/05/15 03:53:04;;;;;;;9.23;2.23;;;;;;;;;;4991438;28;20191;-63
2022/05/15 03:55:30;;;;;;;5.93;1.67;;;;;;;;;;4989829;28;20247;-63
2022/05/15 03:58:15;;;;;;;5.83;1.97;;;;;;;;;;4991760;28;20175;-63
2022/05/15 04:00:41;;;;;;;7.33;2.07;;;;;;;;;;4990296;28;20702;-63
2022/05/15 04:03:26;;;;;;;5.70;2.07;;;;;;;;;;5010481;28;20208;-63
2022/05/15 04:05:53;;;;;;;6.20;2.00;;;;;;;;;;5015321;28;20532;-63
2022/05/15 04:08:20;;;;;;;11.27;2.23;;;;;;;;;;5010710;28;20239;-63
2022/05/15 04:10:47;;;;;;;8.97;2.83;;;;;;;;;;5019474;28;20191;-63
2022/05/15 04:13:14;;;;;;;8.20;2.10;;;;;;;;;;5023899;28;20184;-63
2022/05/15 04:15:41;;;;;;;10.10;2.37;;;;;;;;;;5009025;28;20200;-63
2022/05/15 04:18:11;;;;;;;12.27;2.67;;;;;;;;;;5012524;28;20192;-63
2022/05/15 04:20:38;;;;;;;10.30;2.60;;;;;;;;;;5001025;28;20231;-63
2022/05/15 04:23:05;;;;;;;12.17;3.30;;;;;;;;;;4992796;28;20254;-63
2022/05/15 04:25:31;;;;;;;7.07;2.83;;;;;;;;;;5006607;28;20185;-63
2022/05/15 04:27:58;;;;;;;9.60;2.43;;;;;;;;;;5019921;28;20663;-62
2022/05/15 04:30:25;;;;;;;10.40;2.33;;;;;;;;;;5012544;28;20354;-65
2022/05/15 04:32:52;;;;;;;10.70;2.70;;;;;;;;;;5029924;28;20551;-63
2022/05/15 04:35:20;;;;;;;8.47;2.70;;;;;;;;;;5012240;28;20191;-62
2022/05/15 04:37:47;;;;;;;11.00;3.07;;;;;;;;;;5026820;28;20235;-63
2022/05/15 04:40:14;;;;;;;13.57;3.60;;;;;;;;;;5027200;28;20216;-63
2022/05/15 04:42:41;;;;;;;9.83;2.87;;;;;;;;;;5021760;28;20185;-63
2022/05/15 04:45:09;;;;;;;11.23;2.83;;;;;;;;;;4994413;28;20282;-63
2022/05/15 04:47:36;;;;;;;9.03;2.47;;;;;;;;;;5014300;28;20266;-63
2022/05/15 04:50:03;;;;;;;12.97;2.50;;;;;;;;;;5029636;28;20265;-63
2022/05/15 04:52:30;;;;;;;11.83;2.70;;;;;;;;;;5010532;28;20179;-62
2022/05/15 04:54:56;;;;;;;8.57;2.77;;;;;;;;;;5027756;28;20195;-63
2022/05/15 04:57:23;;;;;;;8.63;2.83;;;;;;;;;;5011917;28;20192;-63
2022/05/15 04:59:50;;;;;;;10.80;2.47;;;;;;;;;;5021747;28;20222;-63
2022/05/15 05:02:16;;;;;;;9.77;2.20;;;;;;;;;;5029604;28;20205;-63
2022/05/15 05:05:00;;;;;;;12.00;2.60;;;;;;;;;;5029582;28;20175;-63
2022/05/15 05:07:27;;;;;;;12.70;2.70;;;;;;;;;;5019063;28;20199;-63
2022/05/15 05:10:11;;;;;;;6.27;2.13;;;;;;;;;;5009803;28;20631;-62
2022/05/15 05:12:39;;;;;;;12.13;2.67;;;;;;;;;;5012328;28;20941;-63
2022/05/15 05:15:06;;;;;;;12.17;2.60;;;;;;;;;;5027600;28;20196;-63
2022/05/15 05:17:32;;;;;;;8.30;2.37;;;;;;;;;;5028026;28;20194;-63
2022/05/15 05:19:59;;;;;;;8.23;2.20;;;;;;;;;;5028958;28;20207;-63
2022/05/15 05:22:26;;;;;;;9.47;2.50;;;;;;;;;;5026427;28;20183;-63
2022/05/15 05:24:52;;;;;;;8.60;2.30;;;;;;;;;;4992605;28;20197;-64
2022/05/15 05:27:20;;;;;;;7.63;2.70;;;;;;;;;;4989840;28;20258;-63
2022/05/15 05:29:47;;;;;;;9.77;2.17;;;;;;;;;;4996138;28;20287;-63
2022/05/15 05:32:31;;;;;;;11.83;2.87;;;;;;;;;;4991686;28;20176;-63
2022/05/15 05:34:57;;;;;;;11.63;2.63;;;;;;;;;;5009352;28;20192;-63
2022/05/15 05:37:24;;;;;;;12.57;2.50;;;;;;;;;;5019934;28;20223;-63
2022/05/15 05:39:51;;;;;;;6.47;1.70;;;;;;;;;;5020543;28;20589;-63
2022/05/15 05:42:17;;;;;;;9.67;2.50;;;;;;;;;;5014636;28;20191;-63
2022/05/15 05:44:44;;;;;;;7.67;2.20;;;;;;;;;;5006265;28;20201;-63
2022/05/15 05:47:11;;;;;;;12.13;2.47;;;;;;;;;;5018430;28;20185;-63
2022/05/15 05:49:38;;;;;;;13.03;2.47;;;;;;;;;;5013713;28;20183;-63
2022/05/15 05:52:04;;;;;;;9.07;2.87;;;;;;;;;;5028166;28;20190;-63
2022/05/15 05:54:31;;;;;;;7.43;1.97;;;;;;;;;;5028994;28;20202;-63
2022/05/15 05:56:58;;;;;;;9.07;2.47;;;;;;;;;;5028561;28;20199;-63
2022/05/15 05:59:25;;;;;;;10.87;2.40;;;;;;;;;;5018986;28;20184;-65
2022/05/15 06:01:52;;;;;;;6.93;2.20;;;;;;;;;;4989337;28;20224;-63
2022/05/15 06:07:04;;;;;;;6.73;2.17;;;;;;;;;;5013183;28;20654;-64
2022/05/15 06:09:31;;;;;;;9.03;2.53;;;;;;;;;;4993214;28;20196;-64
2022/05/15 06:11:58;;;;;;;6.83;2.17;;;;;;;;;;5019656;28;20203;-63
2022/05/15 06:14:25;;;;;;;14.87;3.17;;;;;;;;;;5026376;28;20299;-63
2022/05/15 06:17:09;;;;;;;9.87;2.10;;;;;;;;;;5020813;28;20172;-63
2022/05/15 06:19:36;;;;;;;7.83;1.87;;;;;;;;;;5014891;28;20200;-63
2022/05/15 06:22:20;;;;;;;9.13;2.17;;;;;;;;;;5008262;28;20292;-63
2022/05/15 06:24:47;;;;;;;8.87;2.30;;;;;;;;;;4996004;28;20201;-63
2022/05/15 06:27:14;;;;;;;14.03;3.30;;;;;;;;;;5023494;28;20191;-63
2022/05/15 06:29:41;;;;;;;8.53;2.60;;;;;;;;;;5026432;28;20623;-63
2022/05/15 06:32:07;;;;;;;8.33;2.13;;;;;;;;;;4996794;28;20204;-63
2022/05/15 06:34:34;;;;;;;7.47;2.03;;;;;;;;;;5009960;28;20614;-63
2022/05/15 06:37:01;;;;;;;10.33;2.20;;;;;;;;;;5027282;28;20218;-63
2022/05/15 06:39:28;;;;;;;7.40;1.80;;;;;;;;;;5022994;28;20266;-64
2022/05/15 06:41:59;;;;;;;9.80;1.87;;;;;;;;;;5008479;28;20220;-63
2022/05/15 06:44:37;;;;;;;7.83;2.03;;;;;;;;;;5021453;28;20202;-64
2022/05/15 06:47:04;;;;;;;12.10;1.90;;;;;;;;;;5008027;28;20286;-66
2022/05/15 06:49:31;;;;;;;5.63;1.50;;;;;;;;;;5007794;28;20196;-63
2022/05/15 06:51:57;;;;;;;6.77;1.70;;;;;;;;;;5008491;28;20275;-64
2022/05/15 06:54:24;;;;;;;6.07;1.33;;;;;;;;;;5006756;28;20725;-64
2022/05/15 06:59:39;;;;;;;5.23;1.53;;;;;;;;;;5006721;28;20196;-63
2022/05/15 07:02:07;;;;;;;11.57;1.73;;;;;;;;;;5003152;28;20239;-63
2022/05/15 07:04:34;;;;;;;7.30;1.63;;;;;;;;;;5010483;28;20208;-61
2022/05/15 07:07:01;;;;;;;6.63;1.67;;;;;;;;;;5005349;28;20192;-62
2022/05/15 07:09:28;;;;;;;5.73;1.90;;;;;;;;;;5008802;28;20192;-62
2022/05/15 07:11:55;;;;;;;5.97;1.83;;;;;;;;;;5013747;28;20222;-63
2022/05/15 07:14:23;;;;;;;7.23;2.03;;;;;;;;;;5015279;28;20200;-62
2022/05/15 07:16:50;;;;;;;8.37;1.80;;;;;;;;;;5002916;28;20184;-64
2022/05/15 07:19:18;;;;;;;7.73;1.57;;;;;;;;;;5009778;28;20306;-63
2022/05/15 07:21:45;;;;;;;7.17;1.57;;;;;;;;;;5012597;28;20240;-62
2022/05/15 07:24:12;;;;;;;6.80;1.70;;;;;;;;;;5007811;28;20199;-62
2022/05/15 07:26:44;;;;;;;6.67;1.83;;;;;;;;;;5007628;28;20267;-62
2022/05/15 07:29:14;;;;;;;9.20;1.80;;;;;;;;;;5008111;28;20208;-63
2022/05/15 07:31:41;;;;;;;10.53;1.90;;;;;;;;;;5011589;28;20207;-62
2022/05/15 07:34:08;;;;;;;6.33;1.40;;;;;;;;;;4993752;28;20187;-63
2022/05/15 07:36:54;;;;;;;5.67;1.30;;;;;;;;;;5011579;28;20200;-62
2022/05/15 07:39:21;;;;;;;11.17;1.97;;;;;;;;;;5025032;28;20226;-63
2022/05/15 07:41:48;;;;;;;7.83;1.73;;;;;;;;;;5001328;28;20289;-62
2022/05/15 07:44:16;;;;;;;7.80;1.43;;;;;;;;;;5029956;28;20196;-63
2022/05/15 07:46:43;;;;;;;6.67;1.83;;;;;;;;;;5030846;28;20740;-62
2022/05/15 07:49:10;;;;;;;5.17;1.20;;;;;;;;;;5030696;28;20206;-63
2022/05/15 07:51:38;;;;;;;5.43;1.40;;;;;;;;;;5013467;28;20190;-63
2022/05/15 07:54:05;;;;;;;5.30;1.20;;;;;;;;;;5030888;28;20193;-62
2022/05/15 07:56:32;;;;;;;5.23;1.57;;;;;;;;;;5030766;28;20199;-62
2022/05/15 07:58:58;;;;;;;5.53;1.67;;;;;;;;;;5025592;28;20326;-64
2022/05/15 08:01:25;;;;;;;6.77;1.43;;;;;;;;;;5023592;28;20571;-63
2022/05/15 08:03:52;;;;;;;5.83;1.30;;;;;;;;;;5030949;28;20720;-63
2022/05/15 08:09:05;;;;;;;4.30;1.20;;;;;;;;;;5028520;28;20183;-63
2022/05/15 08:11:32;;;;;;;6.50;1.60;;;;;;;;;;5030479;28;20192;-63
2022/05/15 08:14:02;;;;;;;5.87;1.30;;;;;;;;;;5016753;28;20343;-63
2022/05/15 08:16:29;;;;;;;6.10;1.40;;;;;;;;;;5023276;28;20215;-63
2022/05/15 08:24:29;;;;;;;3.90;1.10;;;;;;;;;;5029639;28;20230;-63
2022/05/15 08:26:56;;;;;;;4.67;1.27;;;;;;;;;;5030089;28;20187;-63
2022/05/15 08:29:23;;;;;;;4.90;1.20;;;;;;;;;;5011637;28;20184;-64
2022/05/15 08:31:50;;;;;;;4.77;0.93;;;;;;;;;;5029640;28;20187;-63
2022/05/15 08:34:35;;;;;;;9.27;1.37;;;;;;;;;;5019507;28;20202;-63
2022/05/15 08:37:03;;;;;;;4.03;1.10;;;;;;;;;;5029070;28;20187;-63
2022/05/15 08:39:47;;;;;;;4.50;1.20;;;;;;;;;;5023309;28;20546;-62
2022/05/15 08:42:21;;;;;;;3.97;1.20;;;;;;;;;;5027466;28;20306;-63
2022/05/15 08:45:06;;;;;;;5.93;1.40;;;;;;;;;;5029339;28;20175;-62
2022/05/15 08:47:35;;;;;;;6.07;1.47;;;;;;;;;;5010770;28;20211;-62
2022/05/15 08:50:10;;;;;;;3.23;0.90;;;;;;;;;;5012810;28;20658;-62
2022/05/15 08:52:46;;;;;;;2.30;0.90;;;;;;;;;;5011961;28;20188;-62
2022/05/15 08:55:15;;;;;;;5.07;1.07;;;;;;;;;;5022536;28;20217;-63
2022/05/15 08:57:42;;;;;;;5.77;1.23;;;;;;;;;;5027800;28;20188;-64
2022/05/15 09:00:10;;;;;;;4.37;1.30;;;;;;;;;;5028054;28;20204;-62
2022/05/15 09:02:38;;;;;;;5.40;1.10;;;;;;;;;;5025655;28;20237;-62
2022/05/15 09:05:05;;;;;;;4.90;1.10;;;;;;;;;;5027518;28;20199;-62
2022/05/15 09:07:43;;;;;;;3.93;1.07;;;;;;;;;;5024697;28;20196;-63
2022/05/15 09:10:10;;;;;;;6.00;1.30;;;;;;;;;;5025389;28;21142;-62
2022/05/15 09:13:11;;;;;;;3.33;1.07;;;;;;;;;;5019191;28;20192;-62
2022/05/15 09:15:41;;;;;;;3.10;1.10;;;;;;;;;;5005268;28;20693;-62
2022/05/15 09:18:08;;;;;;;4.80;1.27;;;;;;;;;;5027682;28;20203;-63
2022/05/15 09:20:37;;;;;;;4.90;0.90;;;;;;;;;;5012566;28;20670;-63
2022/05/15 09:23:04;;;;;;;3.63;1.00;;;;;;;;;;5011264;28;20203;-61
2022/05/15 09:25:35;;;;;;;5.60;1.07;;;;;;;;;;5026478;28;20201;-61
2022/05/15 09:28:12;;;;;;;3.37;1.13;;;;;;;;;;5008408;28;20884;-61
2022/05/15 09:30:42;;;;;;;4.17;1.07;;;;;;;;;;5012637;28;20195;-60
2022/05/15 09:33:28;;;;;;;5.40;1.10;;;;;;;;;;5030049;28;20201;-61
2022/05/15 09:36:14;;;;;;;2.93;1.03;;;;;;;;;;5031882;28;20171;-61
2022/05/15 09:38:41;;;;;;;5.47;1.10;;;;;;;;;;5016784;28;20328;-63
2022/05/15 09:43:58;;;;;;;6.50;1.67;;;;;;;;;;4980518;28;20232;-62
2022/05/15 09:46:25;;;;;;;5.83;1.20;;;;;;;;;;5006163;28;20806;-63
2022/05/15 09:49:26;;;;;;;4.10;0.80;;;;;;;;;;5006536;28;20188;-61
2022/05/15 09:51:54;;;;;;;3.73;1.00;;;;;;;;;;4998382;28;20194;-61
2022/05/15 09:54:33;;;;;;;3.93;1.07;;;;;;;;;;5005501;28;20248;-62
2022/05/15 09:57:09;;;;;;;3.70;1.10;;;;;;;;;;5010452;28;20200;-61
2022/05/15 09:59:36;;;;;;;2.97;0.83;;;;;;;;;;4999713;28;20207;-63
2022/05/15 10:02:03;;;;;;;2.90;1.00;;;;;;;;;;5004654;28;20740;-62
2022/05/15 10:04:32;;;;;;;4.67;1.43;;;;;;;;;;5005731;28;20188;-61
2022/05/15 10:07:00;;;;;;;2.60;1.00;;;;;;;;;;5014520;28;20856;-61
2022/05/15 10:09:36;;;;;;;4.47;1.00;;;;;;;;;;5009066;28;20188;-63
2022/05/15 10:12:06;;;;;;;1.97;0.83;;;;;;;;;;5005689;28;20203;-61
2022/05/15 10:14:51;;;;;;;2.80;0.93;;;;;;;;;;4994336;28;20244;-62
2022/05/15 10:17:22;;;;;;;5.97;1.10;;;;;;;;;;5006763;28;20599;-62
2022/05/15 10:19:56;;;;;;;5.37;1.10;;;;;;;;;;5003608;28;20219;-60
2022/05/15 10:22:42;;;;;;;2.83;0.90;;;;;;;;;;5008517;28;20579;-60
2022/05/15 10:25:17;;;;;;;2.97;0.70;;;;;;;;;;5002941;28;20192;-62
2022/05/15 10:27:54;;;;;;;3.13;0.93;;;;;;;;;;5011438;28;20950;-59
2022/05/15 10:30:24;;;;;;;4.50;1.33;;;;;;;;;;5003373;28;20531;-60
2022/05/15 10:33:11;;;;;;;2.00;0.90;;;;;;;;;;5008787;28;20202;-60
2022/05/15 10:35:45;;;;;;;2.90;0.90;;;;;;;;;;5008634;28;20278;-61
2022/05/15 10:38:30;;;;;;;2.97;1.07;;;;;;;;;;5011226;28;20231;-62
2022/05/15 10:41:19;;;;;;;3.53;1.00;;;;;;;;;;5020219;28;20612;-61
2022/05/15 10:43:53;;;;;;;2.37;0.90;;;;;;;;;;5011748;28;20273;-62
2022/05/15 10:46:39;;;;;;;2.37;0.90;;;;;;;;;;5021206;28;20202;-61
2022/05/15 10:49:09;;;;;;;3.30;0.70;;;;;;;;;;5022525;28;20747;-62
2022/05/15 10:51:38;;;;;;;3.17;1.17;;;;;;;;;;5020590;28;20517;-62
2022/05/15 10:59:58;;;;;;;4.07;0.90;;;;;;;;;;5019707;28;20206;-63
2022/05/15 11:02:40;;;;;;;4.67;1.13;;;;;;;;;;5019686;28;20250;-62
2022/05/15 11:05:09;;;;;;;4.00;1.13;;;;;;;;;;5021629;28;20656;-62
2022/05/15 11:07:36;;;;;;;3.57;0.90;;;;;;;;;;5023912;28;20517;-59
2022/05/15 11:10:06;;;;;;;4.23;1.40;;;;;;;;;;5025306;28;20203;-62
2022/05/15 11:12:49;;;;;;;3.30;1.00;;;;;;;;;;5025637;28;20195;-61
2022/05/15 11:15:17;;;;;;;3.03;1.10;;;;;;;;;;5013845;28;20231;-62
2022/05/15 11:17:44;;;;;;;4.17;1.10;;;;;;;;;;5023904;28;20192;-60
2022/05/15 11:20:26;;;;;;;4.83;0.80;;;;;;;;;;5024665;28;20194;-63
2022/05/15 11:23:13;;;;;;;5.67;1.00;;;;;;;;;;5013762;28;20199;-61
2022/05/15 11:25:50;;;;;;;4.77;1.10;;;;;;;;;;5022312;28;20188;-60
2022/05/15 11:28:22;;;;;;;3.17;0.97;;;;;;;;;;5024898;28;20217;-61
2022/05/15 11:30:57;;;;;;;3.57;0.80;;;;;;;;;;5012375;28;20241;-61
2022/05/15 11:33:33;;;;;;;2.47;1.10;;;;;;;;;;5023216;28;20183;-60
2022/05/15 11:36:22;;;;;;;10.67;1.57;;;;;;;;;;5021770;28;20208;-60
2022/05/15 11:39:07;;;;;;;2.53;0.90;;;;;;;;;;5023741;28;20297;-60
2022/05/15 11:41:34;;;;;;;3.37;0.70;;;;;;;;;;5025047;28;20354;-60
2022/05/15 11:44:03;;;;;;;2.73;0.80;;;;;;;;;;5013988;28;20223;-62
2022/05/15 11:46:45;;;;;;;2.67;0.80;;;;;;;;;;5025008;28;20206;-61
2022/05/15 11:49:27;;;;;;;2.97;1.00;;;;;;;;;;5024478;28;20681;-61
2022/05/15 11:52:06;;;;;;;3.03;0.77;;;;;;;;;;5023796;28;20199;-62
2022/05/15 11:54:36;;;;;;;1.73;0.80;;;;;;;;;;5025179;28;20226;-61
2022/05/15 11:57:10;;;;;;;2.43;0.90;;;;;;;;;;5006946;28;20195;-61
2022/05/15 11:59:47;;;;;;;3.23;0.90;;;;;;;;;;5022981;28;20945;-63
2022/05/15 12:02:20;;;;;;;1.77;0.97;;;;;;;;;;5025091;28;20308;-62
2022/05/15 12:04:55;;;;;;;3.13;1.30;;;;;;;;;;5023576;28;20191;-62
2022/05/15 12:07:49;;;;;;;2.37;1.10;;;;;;;;;;5024690;28;20209;-62
2022/05/15 12:10:35;;;;;;;3.03;1.00;;;;;;;;;;5023702;28;20219;-63
2022/05/15 12:13:04;;;;;;;4.60;1.20;;;;;;;;;;5024204;28;20203;-63
2022/05/15 12:15:51;;;;;;;6.27;2.80;;;;;;;;;;5006843;28;20226;-63
2022/05/15 12:18:18;;;;;;;11.00;5.50;;;;;;;;;;5020962;28;20257;-64
2022/05/15 12:20:49;;;;;;;12.17;5.07;;;;;;;;;;5024498;28;20225;-64
2022/05/15 12:23:18;;;;;;;12.73;4.23;;;;;;;;;;5007110;28;20242;-63
2022/05/15 12:25:58;;;;;;;9.57;3.27;;;;;;;;;;5021634;28;20713;-64
2022/05/15 12:31:22;;;;;;;50.13;13.80;;;;;;;;;;5023555;28;20598;-64
2022/05/15 12:34:15;;;;;;;3.93;1.60;;;;;;;;;;5021627;28;20207;-64
2022/05/15 12:36:50;;;;;;;4.17;1.07;;;;;;;;;;5024098;28;20199;-65
2022/05/15 12:39:21;;;;;;;11.57;2.73;;;;;;;;;;5025766;28;20226;-62
2022/05/15 12:41:48;;;;;;;3.97;2.13;;;;;;;;;;5037137;28;21070;-65
2022/05/15 12:44:15;;;;;;;5.30;1.83;;;;;;;;;;5028229;28;20234;-65
2022/05/15 12:46:53;;;;;;;4.03;1.43;;;;;;;;;;5026495;28;20436;-64
2022/05/15 12:49:40;;;;;;;2.73;1.17;;;;;;;;;;5040041;28;20198;-64
2022/05/15 12:52:14;;;;;;;2.87;0.93;;;;;;;;;;5036444;28;20729;-64
2022/05/15 12:54:42;;;;;;;4.37;1.20;;;;;;;;;;5038540;28;20199;-66
2022/05/15 12:57:13;;;;;;;2.83;1.20;;;;;;;;;;5037637;28;20223;-65
2022/05/15 12:59:43;;;;;;;4.13;1.17;;;;;;;;;;5008975;28;20307;-66
2022/05/15 13:02:15;;;;;;;5.07;1.37;;;;;;;;;;5038779;28;20208;-66
2022/05/15 13:04:46;;;;;;;3.43;1.20;;;;;;;;;;5017609;28;20195;-66
2022/05/15 13:07:13;;;;;;;3.70;1.20;;;;;;;;;;5035279;28;20744;-65
2022/05/15 13:09:41;;;;;;;3.43;1.30;;;;;;;;;;5035241;28;20195;-65
2022/05/15 13:12:08;;;;;;;4.57;1.10;;;;;;;;;;5034794;28;20657;-65
2022/05/15 13:14:36;;;;;;;3.23;1.13;;;;;;;;;;5006739;28;20790;-65
2022/05/15 13:17:04;;;;;;;3.67;1.07;;;;;;;;;;5038659;28;20272;-65
2022/05/15 13:19:35;;;;;;;4.03;1.20;;;;;;;;;;5013286;28;20199;-65
2022/05/15 13:22:03;;;;;;;5.13;1.23;;;;;;;;;;5035688;28;20210;-64
2022/05/15 13:24:30;;;;;;;4.53;1.60;;;;;;;;;;5038739;28;20532;-65
2022/05/15 13:27:03;;;;;;;3.47;1.43;;;;;;;;;;5013069;28;21034;-63
2022/05/15 13:29:31;;;;;;;1.87;1.20;;;;;;;;;;5034772;28;20189;-64
2022/05/15 13:31:58;;;;;;;3.37;1.17;;;;;;;;;;5007866;28;20203;-65
2022/05/15 13:34:28;;;;;;;3.13;0.90;;;;;;;;;;5010812;28;20194;-65
2022/05/15 13:37:00;;;;;;;2.57;1.10;;;;;;;;;;5016435;28;20202;-65
2022/05/15 13:45:05;;;;;;;4.23;1.00;;;;;;;;;;5018804;28;20821;-64
2022/05/15 13:47:31;;;;;;;3.57;1.13;;;;;;;;;;5016764;28;20293;-64
2022/05/15 13:50:00;;;;;;;4.70;1.30;;;;;;;;;;5028817;28;20194;-65
2022/05/15 13:52:34;;;;;;;4.87;1.10;;;;;;;;;;5026869;28;21060;-64
2022/05/15 13:55:07;;;;;;;2.23;1.00;;;;;;;;;;5029323;28;20297;-67
2022/05/15 13:57:48;;;;;;;3.00;1.10;;;;;;;;;;5030412;28;20199;-65
2022/05/15 14:00:15;;;;;;;5.20;1.30;;;;;;;;;;5025205;28;20194;-64
2022/05/15 14:02:59;;;;;;;2.73;1.10;;;;;;;;;;5028138;28;20218;-64
2022/05/15 14:05:27;;;;;;;6.53;1.30;;;;;;;;;;4993201;28;20191;-65
2022/05/15 14:08:06;;;;;;;3.57;1.20;;;;;;;;;;5026728;28;20283;-64
2022/05/15 14:10:59;;;;;;;4.63;1.17;;;;;;;;;;5009372;28;20171;-65
2022/05/15 14:13:29;;;;;;;5.13;1.37;;;;;;;;;;5031548;28;20252;-64
2022/05/15 14:15:56;;;;;;;2.70;1.20;;;;;;;;;;5011645;28;20277;-64
2022/05/15 14:18:27;;;;;;;3.50;1.07;;;;;;;;;;5008192;28;20650;-65
2022/05/15 14:20:54;;;;;;;3.77;1.13;;;;;;;;;;5032173;28;20203;-65
2022/05/15 14:23:24;;;;;;;3.83;1.10;;;;;;;;;;5030334;28;20207;-64
2022/05/15 14:25:54;;;;;;;4.50;1.23;;;;;;;;;;5037757;28;20233;-64
2022/05/15 14:28:23;;;;;;;4.17;1.27;;;;;;;;;;5023677;28;20222;-63
2022/05/15 14:30:50;;;;;;;4.33;1.40;;;;;;;;;;5026654;28;20198;-65
2022/05/15 14:33:24;;;;;;;3.10;1.10;;;;;;;;;;5017691;28;20233;-65
2022/05/15 14:35:52;;;;;;;3.93;1.00;;;;;;;;;;5026115;28;20194;-64
2022/05/15 14:38:19;;;;;;;3.80;1.60;;;;;;;;;;5012933;28;20375;-64
2022/05/15 14:40:46;;;;;;;3.73;1.20;;;;;;;;;;5027529;28;20315;-64
2022/05/15 14:43:13;;;;;;;3.43;1.20;;;;;;;;;;5025808;28;20215;-64
2022/05/15 14:45:48;;;;;;;4.17;1.27;;;;;;;;;;5001630;28;20766;-64
2022/05/15 14:48:16;;;;;;;4.40;1.20;;;;;;;;;;5010130;28;20248;-60
2022/05/15 14:50:44;;;;;;;2.93;1.10;;;;;;;;;;5028436;28;20210;-60
2022/05/15 14:53:12;;;;;;;5.27;1.40;;;;;;;;;;5028977;28;20325;-60
2022/05/15 14:58:25;;;;;;;4.50;1.57;;;;;;;;;;5023956;28;20179;-60
2022/05/15 15:00:51;;;;;;;3.37;1.17;;;;;;;;;;5031287;28;20191;-61
2022/05/15 15:03:18;;;;;;;6.37;1.63;;;;;;;;;;5026849;28;20199;-60
2022/05/15 15:05:45;;;;;;;2.73;0.97;;;;;;;;;;5025756;28;20283;-61
2022/05/15 15:08:16;;;;;;;2.77;1.20;;;;;;;;;;5026555;28;20218;-60
2022/05/15 15:10:44;;;;;;;7.37;1.60;;;;;;;;;;5028014;28;20752;-60
2022/05/15 15:13:11;;;;;;;2.73;0.93;;;;;;;;;;4995761;28;20272;-60
2022/05/15 15:15:38;;;;;;;4.97;1.40;;;;;;;;;;5017078;28;20238;-60
2022/05/15 15:18:23;;;;;;;2.87;1.10;;;;;;;;;;5023011;28;20633;-60
2022/05/15 15:20:51;;;;;;;3.80;1.23;;;;;;;;;;5027275;28;20195;-60
2022/05/15 15:23:36;;;;;;;3.57;1.13;;;;;;;;;;5025514;28;20242;-60
2022/05/15 15:26:03;;;;;;;3.20;1.07;;;;;;;;;;5027485;28;20183;-60
2022/05/15 15:28:30;;;;;;;3.80;1.00;;;;;;;;;;5028547;28;20286;-60
2022/05/15 15:30:57;;;;;;;3.30;1.20;;;;;;;;;;5025466;28;20203;-59
2022/05/15 15:33:23;;;;;;;5.07;1.20;;;;;;;;;;5023334;28;20848;-60
2022/05/15 15:36:08;;;;;;;5.00;1.20;;;;;;;;;;5014685;28;20491;-60
2022/05/15 15:38:37;;;;;;;3.00;1.30;;;;;;;;;;5027677;28;20238;-60